sensor_id;sensor_type;location;lat;lon;timestamp;P1;durP1;ratioP1;P2;durP2;ratioP2
76863;SDS011;65834;52.364;9.754;2023-07-16T00:01:23;4.75;;;2.03;;
76863;SDS011;65834;52.364;9.754;2023-07-16T00:03:52;4.43;;;1.80;;
76863;SDS011;65834;52.364;9.754;2023-07-16T00:06:22;6.18;;;2.22;;
76863;SDS011;65834;52.364;9.754;2023-07-16T00:08:52;5.70;;;1.80;;
76863;SDS011;65834;52.364;9.754;2023-07-16T00:11:21;7.97;;;2.08;;
76863;SDS011;65834;52.364;9.754;2023-07-16T00:13:54;4.03;;;1.90;;
76863;SDS011;65834;52.364;9.754;2023-07-16T00:16:23;6.18;;;2.17;;
76863;SDS011;65834;52.364;9.754;2023-07-16T00:18:53;4.88;;;1.92;;
76863;SDS011;65834;52.364;9.754;2023-07-16T00:21:23;4.45;;;1.70;;
76863;SDS011;65834;52.364;9.754;2023-07-16T00:23:52;5.22;;;2.00;;
76863;SDS011;65834;52.364;9.754;2023-07-16T00:26:22;6.35;;;2.08;;
76863;SDS011;65834;52.364;9.754;2023-07-16T00:28:54;4.82;;;1.90;;
76863;SDS011;65834;52.364;9.754;2023-07-16T00:31:24;5.28;;;1.58;;
76863;SDS011;65834;52.364;9.754;2023-07-16T00:33:53;5.10;;;2.00;;
76863;SDS011;65834;52.364;9.754;2023-07-16T00:36:23;6.43;;;2.10;;
76863;SDS011;65834;52.364;9.754;2023-07-16T00:38:53;5.43;;;2.00;;
76863;SDS011;65834;52.364;9.754;2023-07-16T00:41:23;6.70;;;2.08;;
76863;SDS011;65834;52.364;9.754;2023-07-16T00:43:55;6.90;;;2.05;;
76863;SDS011;65834;52.364;9.754;2023-07-16T00:46:25;5.53;;;2.40;;
76863;SDS011;65834;52.364;9.754;2023-07-16T00:48:55;5.95;;;2.10;;
76863;SDS011;65834;52.364;9.754;2023-07-16T00:51:31;6.35;;;2.50;;
76863;SDS011;65834;52.364;9.754;2023-07-16T00:54:01;7.20;;;2.58;;
76863;SDS011;65834;52.364;9.754;2023-07-16T00:56:31;7.85;;;2.63;;
76863;SDS011;65834;52.364;9.754;2023-07-16T00:59:04;8.18;;;2.40;;
76863;SDS011;65834;52.364;9.754;2023-07-16T01:01:34;6.90;;;2.30;;
76863;SDS011;65834;52.364;9.754;2023-07-16T01:04:03;5.55;;;1.98;;
76863;SDS011;65834;52.364;9.754;2023-07-16T01:06:34;6.70;;;2.35;;
76863;SDS011;65834;52.364;9.754;2023-07-16T01:09:08;4.43;;;1.80;;
76863;SDS011;65834;52.364;9.754;2023-07-16T01:11:44;5.18;;;2.22;;
76863;SDS011;65834;52.364;9.754;2023-07-16T01:14:18;5.72;;;2.10;;
76863;SDS011;65834;52.364;9.754;2023-07-16T01:16:48;5.07;;;1.83;;
76863;SDS011;65834;52.364;9.754;2023-07-16T01:19:24;3.03;;;1.67;;
76863;SDS011;65834;52.364;9.754;2023-07-16T01:21:57;3.38;;;1.75;;
76863;SDS011;65834;52.364;9.754;2023-07-16T01:24:53;6.45;;;1.75;;
76863;SDS011;65834;52.364;9.754;2023-07-16T01:27:44;6.95;;;2.40;;
76863;SDS011;65834;52.364;9.754;2023-07-16T01:30:37;5.90;;;1.70;;
76863;SDS011;65834;52.364;9.754;2023-07-16T01:33:11;4.57;;;1.88;;
76863;SDS011;65834;52.364;9.754;2023-07-16T01:35:42;5.72;;;2.13;;
76863;SDS011;65834;52.364;9.754;2023-07-16T01:38:13;4.13;;;1.60;;
76863;SDS011;65834;52.364;9.754;2023-07-16T01:40:45;5.63;;;1.80;;
76863;SDS011;65834;52.364;9.754;2023-07-16T01:43:15;5.70;;;2.00;;
76863;SDS011;65834;52.364;9.754;2023-07-16T01:45:47;5.78;;;1.77;;
76863;SDS011;65834;52.364;9.754;2023-07-16T01:50:53;5.63;;;2.13;;
76863;SDS011;65834;52.364;9.754;2023-07-16T01:53:23;4.45;;;1.73;;
76863;SDS011;65834;52.364;9.754;2023-07-16T01:55:52;6.28;;;2.10;;
76863;SDS011;65834;52.364;9.754;2023-07-16T01:58:22;7.30;;;1.90;;
76863;SDS011;65834;52.364;9.754;2023-07-16T02:00:55;5.22;;;1.90;;
76863;SDS011;65834;52.364;9.754;2023-07-16T02:03:24;6.20;;;2.00;;
76863;SDS011;65834;52.364;9.754;2023-07-16T02:05:54;5.75;;;1.98;;
76863;SDS011;65834;52.364;9.754;2023-07-16T02:08:25;6.28;;;2.00;;
76863;SDS011;65834;52.364;9.754;2023-07-16T02:10:54;7.25;;;1.90;;
76863;SDS011;65834;52.364;9.754;2023-07-16T02:13:24;5.55;;;1.73;;
76863;SDS011;65834;52.364;9.754;2023-07-16T02:15:57;3.97;;;1.90;;
76863;SDS011;65834;52.364;9.754;2023-07-16T02:18:27;6.32;;;1.67;;
76863;SDS011;65834;52.364;9.754;2023-07-16T02:20:57;3.95;;;1.63;;
76863;SDS011;65834;52.364;9.754;2023-07-16T02:23:28;6.97;;;2.10;;
76863;SDS011;65834;52.364;9.754;2023-07-16T02:25:58;5.65;;;2.08;;
76863;SDS011;65834;52.364;9.754;2023-07-16T02:28:28;7.35;;;2.00;;
76863;SDS011;65834;52.364;9.754;2023-07-16T02:31:02;4.57;;;1.98;;
76863;SDS011;65834;52.364;9.754;2023-07-16T02:33:32;4.90;;;1.70;;
76863;SDS011;65834;52.364;9.754;2023-07-16T02:36:02;6.10;;;2.20;;
76863;SDS011;65834;52.364;9.754;2023-07-16T02:38:32;3.45;;;1.85;;
76863;SDS011;65834;52.364;9.754;2023-07-16T02:41:02;3.78;;;1.35;;
76863;SDS011;65834;52.364;9.754;2023-07-16T02:43:32;6.15;;;1.83;;
76863;SDS011;65834;52.364;9.754;2023-07-16T02:46:04;7.30;;;1.98;;
76863;SDS011;65834;52.364;9.754;2023-07-16T02:48:33;4.75;;;1.65;;
76863;SDS011;65834;52.364;9.754;2023-07-16T02:51:03;5.70;;;1.80;;
76863;SDS011;65834;52.364;9.754;2023-07-16T02:53:33;3.90;;;1.70;;
76863;SDS011;65834;52.364;9.754;2023-07-16T02:56:03;5.38;;;2.08;;
76863;SDS011;65834;52.364;9.754;2023-07-16T02:58:32;7.70;;;2.00;;
76863;SDS011;65834;52.364;9.754;2023-07-16T03:01:05;5.50;;;2.05;;
76863;SDS011;65834;52.364;9.754;2023-07-16T03:03:34;7.25;;;1.85;;
76863;SDS011;65834;52.364;9.754;2023-07-16T03:06:04;9.02;;;2.20;;
76863;SDS011;65834;52.364;9.754;2023-07-16T03:08:34;4.68;;;2.22;;
76863;SDS011;65834;52.364;9.754;2023-07-16T03:11:04;7.75;;;2.33;;
76863;SDS011;65834;52.364;9.754;2023-07-16T03:13:33;4.88;;;1.98;;
76863;SDS011;65834;52.364;9.754;2023-07-16T03:16:06;6.18;;;2.20;;
76863;SDS011;65834;52.364;9.754;2023-07-16T03:18:36;5.22;;;1.85;;
76863;SDS011;65834;52.364;9.754;2023-07-16T03:21:07;6.70;;;2.03;;
76863;SDS011;65834;52.364;9.754;2023-07-16T03:23:36;6.07;;;1.98;;
76863;SDS011;65834;52.364;9.754;2023-07-16T03:26:06;5.82;;;1.95;;
76863;SDS011;65834;52.364;9.754;2023-07-16T03:28:36;5.28;;;1.95;;
76863;SDS011;65834;52.364;9.754;2023-07-16T03:31:10;5.10;;;1.80;;
76863;SDS011;65834;52.364;9.754;2023-07-16T03:33:42;6.13;;;2.10;;
76863;SDS011;65834;52.364;9.754;2023-07-16T03:36:12;7.68;;;2.30;;
76863;SDS011;65834;52.364;9.754;2023-07-16T03:38:42;7.40;;;2.35;;
76863;SDS011;65834;52.364;9.754;2023-07-16T03:41:12;6.55;;;2.03;;
76863;SDS011;65834;52.364;9.754;2023-07-16T03:43:43;5.88;;;2.33;;
76863;SDS011;65834;52.364;9.754;2023-07-16T03:46:19;7.85;;;2.30;;
76863;SDS011;65834;52.364;9.754;2023-07-16T03:48:48;6.82;;;2.20;;
76863;SDS011;65834;52.364;9.754;2023-07-16T03:51:18;4.97;;;2.10;;
76863;SDS011;65834;52.364;9.754;2023-07-16T03:53:48;7.63;;;2.13;;
76863;SDS011;65834;52.364;9.754;2023-07-16T03:56:17;8.38;;;2.20;;
76863;SDS011;65834;52.364;9.754;2023-07-16T03:58:47;4.30;;;2.20;;
76863;SDS011;65834;52.364;9.754;2023-07-16T04:01:19;6.97;;;2.40;;
76863;SDS011;65834;52.364;9.754;2023-07-16T04:03:49;8.50;;;2.20;;
76863;SDS011;65834;52.364;9.754;2023-07-16T04:06:20;7.47;;;2.60;;
76863;SDS011;65834;52.364;9.754;2023-07-16T04:08:49;5.05;;;2.00;;
76863;SDS011;65834;52.364;9.754;2023-07-16T04:11:19;5.38;;;1.90;;
76863;SDS011;65834;52.364;9.754;2023-07-16T04:13:49;5.90;;;1.92;;
76863;SDS011;65834;52.364;9.754;2023-07-16T04:16:21;4.75;;;2.00;;
76863;SDS011;65834;52.364;9.754;2023-07-16T04:22:08;6.88;;;2.30;;
76863;SDS011;65834;52.364;9.754;2023-07-16T04:28:34;7.70;;;2.53;;
76863;SDS011;65834;52.364;9.754;2023-07-16T04:31:05;6.70;;;2.35;;
76863;SDS011;65834;52.364;9.754;2023-07-16T04:33:38;6.95;;;2.30;;
76863;SDS011;65834;52.364;9.754;2023-07-16T04:36:07;5.95;;;2.08;;
76863;SDS011;65834;52.364;9.754;2023-07-16T04:38:37;6.95;;;2.58;;
76863;SDS011;65834;52.364;9.754;2023-07-16T04:41:06;6.45;;;2.38;;
76863;SDS011;65834;52.364;9.754;2023-07-16T04:43:36;9.35;;;2.47;;
76863;SDS011;65834;52.364;9.754;2023-07-16T04:46:06;4.88;;;2.40;;
76863;SDS011;65834;52.364;9.754;2023-07-16T04:48:38;7.43;;;2.45;;
76863;SDS011;65834;52.364;9.754;2023-07-16T04:51:07;7.20;;;2.33;;
76863;SDS011;65834;52.364;9.754;2023-07-16T04:53:37;6.88;;;2.55;;
76863;SDS011;65834;52.364;9.754;2023-07-16T04:56:11;5.93;;;2.08;;
76863;SDS011;65834;52.364;9.754;2023-07-16T04:58:42;7.03;;;2.33;;
76863;SDS011;65834;52.364;9.754;2023-07-16T05:01:11;7.32;;;2.17;;
76863;SDS011;65834;52.364;9.754;2023-07-16T05:03:44;6.85;;;2.00;;
76863;SDS011;65834;52.364;9.754;2023-07-16T05:06:13;6.32;;;1.90;;
76863;SDS011;65834;52.364;9.754;2023-07-16T05:08:43;5.78;;;2.03;;
76863;SDS011;65834;52.364;9.754;2023-07-16T05:11:14;7.70;;;2.40;;
76863;SDS011;65834;52.364;9.754;2023-07-16T05:13:43;7.22;;;2.08;;
76863;SDS011;65834;52.364;9.754;2023-07-16T05:16:13;6.60;;;2.30;;
76863;SDS011;65834;52.364;9.754;2023-07-16T05:18:46;7.00;;;2.20;;
76863;SDS011;65834;52.364;9.754;2023-07-16T05:21:15;6.30;;;2.10;;
76863;SDS011;65834;52.364;9.754;2023-07-16T05:23:45;6.20;;;2.08;;
76863;SDS011;65834;52.364;9.754;2023-07-16T05:26:14;5.70;;;2.20;;
76863;SDS011;65834;52.364;9.754;2023-07-16T05:28:44;7.63;;;2.22;;
76863;SDS011;65834;52.364;9.754;2023-07-16T05:31:13;6.00;;;2.10;;
76863;SDS011;65834;52.364;9.754;2023-07-16T05:33:46;5.45;;;2.10;;
76863;SDS011;65834;52.364;9.754;2023-07-16T05:36:15;5.13;;;1.88;;
76863;SDS011;65834;52.364;9.754;2023-07-16T05:38:45;5.80;;;1.92;;
76863;SDS011;65834;52.364;9.754;2023-07-16T05:41:14;6.32;;;1.90;;
76863;SDS011;65834;52.364;9.754;2023-07-16T05:43:48;7.50;;;1.90;;
76863;SDS011;65834;52.364;9.754;2023-07-16T05:46:18;8.95;;;2.78;;
76863;SDS011;65834;52.364;9.754;2023-07-16T05:48:50;3.85;;;1.60;;
76863;SDS011;65834;52.364;9.754;2023-07-16T05:51:20;7.05;;;1.60;;
76863;SDS011;65834;52.364;9.754;2023-07-16T05:53:50;5.47;;;1.90;;
76863;SDS011;65834;52.364;9.754;2023-07-16T05:56:20;7.20;;;2.28;;
76863;SDS011;65834;52.364;9.754;2023-07-16T05:58:49;5.53;;;1.98;;
76863;SDS011;65834;52.364;9.754;2023-07-16T06:01:19;8.75;;;2.42;;
76863;SDS011;65834;52.364;9.754;2023-07-16T06:03:51;6.78;;;1.83;;
76863;SDS011;65834;52.364;9.754;2023-07-16T06:06:21;5.85;;;2.08;;
76863;SDS011;65834;52.364;9.754;2023-07-16T06:08:50;5.15;;;2.08;;
76863;SDS011;65834;52.364;9.754;2023-07-16T06:11:20;5.80;;;2.15;;
76863;SDS011;65834;52.364;9.754;2023-07-16T06:13:52;7.10;;;2.20;;
76863;SDS011;65834;52.364;9.754;2023-07-16T06:16:22;9.07;;;2.33;;
76863;SDS011;65834;52.364;9.754;2023-07-16T06:18:55;5.97;;;2.20;;
76863;SDS011;65834;52.364;9.754;2023-07-16T06:21:24;7.28;;;2.30;;
76863;SDS011;65834;52.364;9.754;2023-07-16T06:23:54;4.80;;;1.98;;
76863;SDS011;65834;52.364;9.754;2023-07-16T06:26:23;6.47;;;2.30;;
76863;SDS011;65834;52.364;9.754;2023-07-16T06:28:53;5.57;;;1.83;;
76863;SDS011;65834;52.364;9.754;2023-07-16T06:31:23;7.10;;;2.15;;
76863;SDS011;65834;52.364;9.754;2023-07-16T06:33:55;3.45;;;1.88;;
76863;SDS011;65834;52.364;9.754;2023-07-16T06:36:26;6.72;;;2.38;;
76863;SDS011;65834;52.364;9.754;2023-07-16T06:38:56;6.32;;;2.13;;
76863;SDS011;65834;52.364;9.754;2023-07-16T06:41:26;6.68;;;2.28;;
76863;SDS011;65834;52.364;9.754;2023-07-16T06:43:57;6.15;;;2.47;;
76863;SDS011;65834;52.364;9.754;2023-07-16T06:46:29;7.78;;;2.45;;
76863;SDS011;65834;52.364;9.754;2023-07-16T06:49:02;6.63;;;2.20;;
76863;SDS011;65834;52.364;9.754;2023-07-16T06:51:34;5.07;;;2.08;;
76863;SDS011;65834;52.364;9.754;2023-07-16T06:54:04;4.93;;;1.95;;
76863;SDS011;65834;52.364;9.754;2023-07-16T06:56:33;7.53;;;2.42;;
76863;SDS011;65834;52.364;9.754;2023-07-16T06:59:03;7.93;;;2.42;;
76863;SDS011;65834;52.364;9.754;2023-07-16T07:01:32;6.88;;;2.42;;
76863;SDS011;65834;52.364;9.754;2023-07-16T07:04:05;8.10;;;2.50;;
76863;SDS011;65834;52.364;9.754;2023-07-16T07:06:34;6.43;;;2.67;;
76863;SDS011;65834;52.364;9.754;2023-07-16T07:09:04;7.82;;;2.50;;
76863;SDS011;65834;52.364;9.754;2023-07-16T07:11:34;8.38;;;2.60;;
76863;SDS011;65834;52.364;9.754;2023-07-16T07:14:03;7.65;;;3.10;;
76863;SDS011;65834;52.364;9.754;2023-07-16T07:16:37;9.55;;;2.83;;
76863;SDS011;65834;52.364;9.754;2023-07-16T07:19:09;7.50;;;2.40;;
76863;SDS011;65834;52.364;9.754;2023-07-16T07:21:38;9.73;;;2.58;;
76863;SDS011;65834;52.364;9.754;2023-07-16T07:24:08;11.77;;;2.83;;
76863;SDS011;65834;52.364;9.754;2023-07-16T07:26:38;8.20;;;2.40;;
76863;SDS011;65834;52.364;9.754;2023-07-16T07:29:08;7.07;;;2.75;;
76863;SDS011;65834;52.364;9.754;2023-07-16T07:31:37;8.77;;;2.83;;
76863;SDS011;65834;52.364;9.754;2023-07-16T07:34:10;11.00;;;2.78;;
76863;SDS011;65834;52.364;9.754;2023-07-16T07:36:40;7.88;;;2.78;;
76863;SDS011;65834;52.364;9.754;2023-07-16T07:39:10;9.75;;;2.90;;
76863;SDS011;65834;52.364;9.754;2023-07-16T07:41:40;7.90;;;2.58;;
76863;SDS011;65834;52.364;9.754;2023-07-16T07:44:10;9.52;;;2.70;;
76863;SDS011;65834;52.364;9.754;2023-07-16T07:46:39;11.25;;;2.70;;
76863;SDS011;65834;52.364;9.754;2023-07-16T07:49:12;8.10;;;2.70;;
76863;SDS011;65834;52.364;9.754;2023-07-16T07:51:42;8.48;;;2.50;;
76863;SDS011;65834;52.364;9.754;2023-07-16T07:54:14;8.68;;;3.03;;
76863;SDS011;65834;52.364;9.754;2023-07-16T07:56:45;9.32;;;2.70;;
76863;SDS011;65834;52.364;9.754;2023-07-16T07:59:14;10.32;;;3.30;;
76863;SDS011;65834;52.364;9.754;2023-07-16T08:01:44;12.38;;;3.70;;
76863;SDS011;65834;52.364;9.754;2023-07-16T08:04:16;10.35;;;2.97;;
76863;SDS011;65834;52.364;9.754;2023-07-16T08:06:46;10.98;;;3.15;;
76863;SDS011;65834;52.364;9.754;2023-07-16T08:09:16;8.93;;;2.70;;
76863;SDS011;65834;52.364;9.754;2023-07-16T08:11:45;10.85;;;3.08;;
76863;SDS011;65834;52.364;9.754;2023-07-16T08:14:15;8.45;;;3.17;;
76863;SDS011;65834;52.364;9.754;2023-07-16T08:16:44;11.32;;;3.15;;
76863;SDS011;65834;52.364;9.754;2023-07-16T08:19:17;9.73;;;2.63;;
76863;SDS011;65834;52.364;9.754;2023-07-16T08:21:46;9.15;;;2.88;;
76863;SDS011;65834;52.364;9.754;2023-07-16T08:24:16;9.68;;;3.08;;
76863;SDS011;65834;52.364;9.754;2023-07-16T08:26:45;12.13;;;3.72;;
76863;SDS011;65834;52.364;9.754;2023-07-16T08:29:15;9.15;;;3.22;;
76863;SDS011;65834;52.364;9.754;2023-07-16T08:31:45;7.75;;;2.80;;
76863;SDS011;65834;52.364;9.754;2023-07-16T08:34:17;8.27;;;3.25;;
76863;SDS011;65834;52.364;9.754;2023-07-16T08:36:46;9.30;;;2.83;;
76863;SDS011;65834;52.364;9.754;2023-07-16T08:39:16;8.27;;;2.60;;
76863;SDS011;65834;52.364;9.754;2023-07-16T08:41:49;10.68;;;2.80;;
76863;SDS011;65834;52.364;9.754;2023-07-16T08:44:20;9.35;;;2.80;;
76863;SDS011;65834;52.364;9.754;2023-07-16T08:46:50;9.68;;;2.80;;
76863;SDS011;65834;52.364;9.754;2023-07-16T08:49:23;9.63;;;2.67;;
76863;SDS011;65834;52.364;9.754;2023-07-16T08:51:54;8.23;;;3.33;;
76863;SDS011;65834;52.364;9.754;2023-07-16T08:54:24;8.23;;;2.83;;
76863;SDS011;65834;52.364;9.754;2023-07-16T08:56:54;9.57;;;3.17;;
76863;SDS011;65834;52.364;9.754;2023-07-16T08:59:26;7.80;;;2.72;;
76863;SDS011;65834;52.364;9.754;2023-07-16T09:01:56;9.43;;;2.67;;
76863;SDS011;65834;52.364;9.754;2023-07-16T09:04:28;7.22;;;2.42;;
76863;SDS011;65834;52.364;9.754;2023-07-16T09:06:58;7.07;;;2.78;;
76863;SDS011;65834;52.364;9.754;2023-07-16T09:09:28;10.73;;;2.90;;
76863;SDS011;65834;52.364;9.754;2023-07-16T09:11:57;9.32;;;2.67;;
76863;SDS011;65834;52.364;9.754;2023-07-16T09:14:27;8.52;;;3.00;;
76863;SDS011;65834;52.364;9.754;2023-07-16T09:16:57;12.43;;;3.53;;
76863;SDS011;65834;52.364;9.754;2023-07-16T09:19:34;9.80;;;2.45;;
76863;SDS011;65834;52.364;9.754;2023-07-16T09:22:05;7.93;;;2.97;;
76863;SDS011;65834;52.364;9.754;2023-07-16T09:24:35;9.45;;;2.92;;
76863;SDS011;65834;52.364;9.754;2023-07-16T09:27:05;9.20;;;3.05;;
76863;SDS011;65834;52.364;9.754;2023-07-16T09:29:37;10.50;;;2.80;;
76863;SDS011;65834;52.364;9.754;2023-07-16T09:32:07;8.38;;;2.83;;
76863;SDS011;65834;52.364;9.754;2023-07-16T09:34:40;7.72;;;2.50;;
76863;SDS011;65834;52.364;9.754;2023-07-16T09:37:10;8.45;;;2.95;;
76863;SDS011;65834;52.364;9.754;2023-07-16T09:39:39;8.77;;;2.88;;
76863;SDS011;65834;52.364;9.754;2023-07-16T09:42:12;8.80;;;2.90;;
76863;SDS011;65834;52.364;9.754;2023-07-16T09:44:46;10.48;;;3.47;;
76863;SDS011;65834;52.364;9.754;2023-07-16T09:47:16;9.00;;;2.78;;
76863;SDS011;65834;52.364;9.754;2023-07-16T09:49:48;9.93;;;3.13;;
76863;SDS011;65834;52.364;9.754;2023-07-16T09:52:18;9.63;;;3.05;;
76863;SDS011;65834;52.364;9.754;2023-07-16T09:54:48;7.30;;;2.50;;
76863;SDS011;65834;52.364;9.754;2023-07-16T09:57:19;11.10;;;3.22;;
76863;SDS011;65834;52.364;9.754;2023-07-16T09:59:50;9.32;;;2.83;;
76863;SDS011;65834;52.364;9.754;2023-07-16T10:02:22;8.20;;;2.87;;
76863;SDS011;65834;52.364;9.754;2023-07-16T10:04:54;8.48;;;2.75;;
76863;SDS011;65834;52.364;9.754;2023-07-16T10:07:25;9.55;;;2.72;;
76863;SDS011;65834;52.364;9.754;2023-07-16T10:09:55;8.43;;;2.70;;
76863;SDS011;65834;52.364;9.754;2023-07-16T10:12:27;9.55;;;2.78;;
76863;SDS011;65834;52.364;9.754;2023-07-16T10:14:57;7.90;;;2.78;;
76863;SDS011;65834;52.364;9.754;2023-07-16T10:17:29;7.82;;;2.70;;
76863;SDS011;65834;52.364;9.754;2023-07-16T10:20:05;7.75;;;2.75;;
76863;SDS011;65834;52.364;9.754;2023-07-16T10:22:37;10.23;;;3.00;;
76863;SDS011;65834;52.364;9.754;2023-07-16T10:25:10;9.60;;;2.73;;
76863;SDS011;65834;52.364;9.754;2023-07-16T10:27:51;8.60;;;2.88;;
76863;SDS011;65834;52.364;9.754;2023-07-16T10:30:22;7.93;;;2.97;;
76863;SDS011;65834;52.364;9.754;2023-07-16T10:32:51;9.23;;;3.13;;
76863;SDS011;65834;52.364;9.754;2023-07-16T10:35:24;7.68;;;2.67;;
76863;SDS011;65834;52.364;9.754;2023-07-16T10:37:54;9.73;;;2.70;;
76863;SDS011;65834;52.364;9.754;2023-07-16T10:40:23;9.73;;;3.03;;
76863;SDS011;65834;52.364;9.754;2023-07-16T10:42:53;11.10;;;3.20;;
76863;SDS011;65834;52.364;9.754;2023-07-16T10:45:23;8.90;;;2.97;;
76863;SDS011;65834;52.364;9.754;2023-07-16T10:47:53;8.45;;;2.55;;
76863;SDS011;65834;52.364;9.754;2023-07-16T10:50:26;9.27;;;3.38;;
76863;SDS011;65834;52.364;9.754;2023-07-16T10:55:26;7.47;;;2.42;;
76863;SDS011;65834;52.364;9.754;2023-07-16T10:58:03;7.97;;;2.50;;
76863;SDS011;65834;52.364;9.754;2023-07-16T11:00:36;9.45;;;2.88;;
76863;SDS011;65834;52.364;9.754;2023-07-16T11:03:08;7.72;;;3.15;;
76863;SDS011;65834;52.364;9.754;2023-07-16T11:05:41;8.82;;;2.78;;
76863;SDS011;65834;52.364;9.754;2023-07-16T11:08:21;7.90;;;2.70;;
76863;SDS011;65834;52.364;9.754;2023-07-16T11:10:54;8.60;;;3.25;;
76863;SDS011;65834;52.364;9.754;2023-07-16T11:13:25;7.85;;;3.10;;
76863;SDS011;65834;52.364;9.754;2023-07-16T11:15:55;9.63;;;3.20;;
76863;SDS011;65834;52.364;9.754;2023-07-16T11:18:25;9.07;;;3.15;;
76863;SDS011;65834;52.364;9.754;2023-07-16T11:20:58;9.60;;;3.03;;
76863;SDS011;65834;52.364;9.754;2023-07-16T11:23:29;8.93;;;3.05;;
76863;SDS011;65834;52.364;9.754;2023-07-16T11:26:01;9.10;;;3.20;;
76863;SDS011;65834;52.364;9.754;2023-07-16T11:28:37;8.40;;;3.00;;
76863;SDS011;65834;52.364;9.754;2023-07-16T11:31:10;10.63;;;2.90;;
76863;SDS011;65834;52.364;9.754;2023-07-16T11:33:41;9.25;;;3.20;;
76863;SDS011;65834;52.364;9.754;2023-07-16T11:36:16;9.40;;;3.13;;
76863;SDS011;65834;52.364;9.754;2023-07-16T11:38:47;8.57;;;3.47;;
76863;SDS011;65834;52.364;9.754;2023-07-16T11:41:19;8.23;;;3.00;;
76863;SDS011;65834;52.364;9.754;2023-07-16T11:43:49;7.70;;;2.97;;
76863;SDS011;65834;52.364;9.754;2023-07-16T11:46:19;10.43;;;3.38;;
76863;SDS011;65834;52.364;9.754;2023-07-16T11:48:49;8.50;;;3.05;;
76863;SDS011;65834;52.364;9.754;2023-07-16T11:51:21;8.50;;;2.65;;
76863;SDS011;65834;52.364;9.754;2023-07-16T11:53:50;7.28;;;2.72;;
76863;SDS011;65834;52.364;9.754;2023-07-16T11:56:20;8.02;;;2.80;;
76863;SDS011;65834;52.364;9.754;2023-07-16T11:58:50;8.60;;;3.15;;
76863;SDS011;65834;52.364;9.754;2023-07-16T12:01:19;7.72;;;3.15;;
76863;SDS011;65834;52.364;9.754;2023-07-16T12:03:49;10.25;;;3.13;;
76863;SDS011;65834;52.364;9.754;2023-07-16T12:06:21;9.20;;;2.90;;
76863;SDS011;65834;52.364;9.754;2023-07-16T12:08:51;11.40;;;3.25;;
76863;SDS011;65834;52.364;9.754;2023-07-16T12:11:21;8.85;;;2.78;;
76863;SDS011;65834;52.364;9.754;2023-07-16T12:13:51;6.65;;;2.80;;
76863;SDS011;65834;52.364;9.754;2023-07-16T12:16:21;9.45;;;3.40;;
76863;SDS011;65834;52.364;9.754;2023-07-16T12:18:50;8.05;;;3.08;;
76863;SDS011;65834;52.364;9.754;2023-07-16T12:21:22;9.45;;;3.15;;
76863;SDS011;65834;52.364;9.754;2023-07-16T12:23:52;8.10;;;3.13;;
76863;SDS011;65834;52.364;9.754;2023-07-16T12:26:22;8.20;;;2.97;;
76863;SDS011;65834;52.364;9.754;2023-07-16T12:28:51;6.95;;;2.78;;
76863;SDS011;65834;52.364;9.754;2023-07-16T12:31:21;8.05;;;3.20;;
76863;SDS011;65834;52.364;9.754;2023-07-16T12:33:51;8.13;;;2.78;;
76863;SDS011;65834;52.364;9.754;2023-07-16T12:36:23;9.07;;;2.90;;
76863;SDS011;65834;52.364;9.754;2023-07-16T12:38:53;7.65;;;2.53;;
76863;SDS011;65834;52.364;9.754;2023-07-16T12:41:22;9.00;;;2.72;;
76863;SDS011;65834;52.364;9.754;2023-07-16T12:43:52;8.55;;;2.88;;
76863;SDS011;65834;52.364;9.754;2023-07-16T12:46:21;10.85;;;3.50;;
76863;SDS011;65834;52.364;9.754;2023-07-16T12:48:51;8.60;;;3.03;;
76863;SDS011;65834;52.364;9.754;2023-07-16T12:51:23;9.00;;;3.03;;
76863;SDS011;65834;52.364;9.754;2023-07-16T12:56:22;7.47;;;2.70;;
76863;SDS011;65834;52.364;9.754;2023-07-16T12:58:52;11.43;;;3.15;;
76863;SDS011;65834;52.364;9.754;2023-07-16T13:01:21;9.90;;;2.67;;
76863;SDS011;65834;52.364;9.754;2023-07-16T13:03:51;8.77;;;3.05;;
76863;SDS011;65834;52.364;9.754;2023-07-16T13:06:23;7.82;;;3.40;;
76863;SDS011;65834;52.364;9.754;2023-07-16T13:08:53;7.47;;;2.78;;
76863;SDS011;65834;52.364;9.754;2023-07-16T13:11:23;8.65;;;2.78;;
76863;SDS011;65834;52.364;9.754;2023-07-16T13:13:53;7.85;;;2.78;;
76863;SDS011;65834;52.364;9.754;2023-07-16T13:16:23;8.68;;;2.65;;
76863;SDS011;65834;52.364;9.754;2023-07-16T13:18:53;6.57;;;2.55;;
76863;SDS011;65834;52.364;9.754;2023-07-16T13:21:25;7.00;;;2.53;;
76863;SDS011;65834;52.364;9.754;2023-07-16T13:23:54;9.70;;;2.65;;
76863;SDS011;65834;52.364;9.754;2023-07-16T13:26:24;5.32;;;2.17;;
76863;SDS011;65834;52.364;9.754;2023-07-16T13:28:54;7.22;;;2.60;;
76863;SDS011;65834;52.364;9.754;2023-07-16T13:31:23;10.40;;;2.70;;
76863;SDS011;65834;52.364;9.754;2023-07-16T13:33:53;8.13;;;2.50;;
76863;SDS011;65834;52.364;9.754;2023-07-16T13:36:25;7.90;;;2.90;;
76863;SDS011;65834;52.364;9.754;2023-07-16T13:38:55;9.00;;;2.90;;
76863;SDS011;65834;52.364;9.754;2023-07-16T13:41:25;7.63;;;3.00;;
76863;SDS011;65834;52.364;9.754;2023-07-16T13:43:54;12.25;;;3.10;;
76863;SDS011;65834;52.364;9.754;2023-07-16T13:46:24;8.20;;;2.75;;
76863;SDS011;65834;52.364;9.754;2023-07-16T13:48:53;9.23;;;3.00;;
76863;SDS011;65834;52.364;9.754;2023-07-16T13:51:27;8.70;;;2.90;;
76863;SDS011;65834;52.364;9.754;2023-07-16T13:53:57;7.40;;;2.70;;
76863;SDS011;65834;52.364;9.754;2023-07-16T13:56:27;8.88;;;2.75;;
76863;SDS011;65834;52.364;9.754;2023-07-16T13:58:56;9.32;;;2.70;;
76863;SDS011;65834;52.364;9.754;2023-07-16T14:01:26;9.18;;;3.05;;
76863;SDS011;65834;52.364;9.754;2023-07-16T14:03:55;7.70;;;2.88;;
76863;SDS011;65834;52.364;9.754;2023-07-16T14:06:28;8.90;;;3.10;;
76863;SDS011;65834;52.364;9.754;2023-07-16T14:08:57;7.50;;;2.70;;
76863;SDS011;65834;52.364;9.754;2023-07-16T14:11:27;8.38;;;2.92;;
76863;SDS011;65834;52.364;9.754;2023-07-16T14:13:57;8.30;;;2.90;;
76863;SDS011;65834;52.364;9.754;2023-07-16T14:16:29;8.00;;;2.60;;
76863;SDS011;65834;52.364;9.754;2023-07-16T14:18:59;8.15;;;3.10;;
76863;SDS011;65834;52.364;9.754;2023-07-16T14:21:31;8.90;;;2.70;;
76863;SDS011;65834;52.364;9.754;2023-07-16T14:24:01;8.15;;;3.22;;
76863;SDS011;65834;52.364;9.754;2023-07-16T14:26:31;8.52;;;3.30;;
76863;SDS011;65834;52.364;9.754;2023-07-16T14:29:00;8.07;;;3.33;;
76863;SDS011;65834;52.364;9.754;2023-07-16T14:31:30;10.02;;;3.40;;
76863;SDS011;65834;52.364;9.754;2023-07-16T14:34:00;9.75;;;3.40;;
76863;SDS011;65834;52.364;9.754;2023-07-16T14:36:32;8.07;;;3.10;;
76863;SDS011;65834;52.364;9.754;2023-07-16T14:39:02;8.65;;;3.05;;
76863;SDS011;65834;52.364;9.754;2023-07-16T14:41:31;8.73;;;3.28;;
76863;SDS011;65834;52.364;9.754;2023-07-16T14:44:01;9.40;;;3.53;;
76863;SDS011;65834;52.364;9.754;2023-07-16T14:46:30;11.18;;;3.42;;
76863;SDS011;65834;52.364;9.754;2023-07-16T14:49:00;8.15;;;3.15;;
76863;SDS011;65834;52.364;9.754;2023-07-16T14:51:33;11.48;;;3.50;;
76863;SDS011;65834;52.364;9.754;2023-07-16T14:54:06;8.93;;;3.28;;
76863;SDS011;65834;52.364;9.754;2023-07-16T14:56:36;8.80;;;3.40;;
76863;SDS011;65834;52.364;9.754;2023-07-16T14:59:06;7.80;;;3.20;;
76863;SDS011;65834;52.364;9.754;2023-07-16T15:01:35;8.13;;;3.00;;
76863;SDS011;65834;52.364;9.754;2023-07-16T15:04:05;9.52;;;3.15;;
76863;SDS011;65834;52.364;9.754;2023-07-16T15:06:38;10.15;;;3.80;;
76863;SDS011;65834;52.364;9.754;2023-07-16T15:09:08;10.02;;;3.40;;
76863;SDS011;65834;52.364;9.754;2023-07-16T15:11:39;10.13;;;3.72;;
76863;SDS011;65834;52.364;9.754;2023-07-16T15:14:08;10.30;;;3.28;;
76863;SDS011;65834;52.364;9.754;2023-07-16T15:16:39;8.63;;;3.72;;
76863;SDS011;65834;52.364;9.754;2023-07-16T15:19:09;8.63;;;3.45;;
76863;SDS011;65834;52.364;9.754;2023-07-16T15:21:41;10.15;;;3.83;;